createdAt,value
2022-11-16T00:00:06.730Z,69.50
2022-11-16T00:00:38.267Z,69.60
2022-11-16T00:01:09.733Z,69.60
2022-11-16T00:01:41.256Z,69.60
2022-11-16T00:02:12.895Z,69.50
2022-11-16T00:02:44.432Z,69.50
2022-11-16T00:03:15.904Z,69.50
2022-11-16T00:03:47.369Z,69.50
2022-11-16T00:04:18.830Z,69.50
2022-11-16T00:04:50.311Z,69.50
2022-11-16T00:05:27.007Z,69.50
2022-11-16T00:05:59.733Z,69.50
2022-11-16T00:06:31.191Z,69.50
2022-11-16T00:07:02.774Z,69.50
2022-11-16T00:07:34.442Z,69.50
2022-11-16T00:08:05.955Z,69.50
2022-11-16T00:08:37.424Z,69.50
2022-11-16T00:09:08.898Z,69.50
2022-11-16T00:09:40.358Z,69.50
2022-11-16T00:10:11.819Z,69.50
2022-11-16T00:10:43.283Z,69.50
2022-11-16T00:11:14.747Z,69.50
2022-11-16T00:11:46.224Z,69.50
2022-11-16T00:12:17.691Z,69.60
2022-11-16T00:12:49.152Z,69.50
2022-11-16T00:13:20.629Z,69.50
2022-11-16T00:13:52.087Z,69.50
2022-11-16T00:14:23.554Z,69.50
2022-11-16T00:14:55.031Z,69.50
2022-11-16T00:15:26.493Z,69.50
2022-11-16T00:15:57.962Z,69.50
2022-11-16T00:16:29.419Z,69.50
2022-11-16T00:17:00.893Z,69.50
2022-11-16T00:17:32.365Z,69.60
2022-11-16T00:18:03.827Z,69.50
2022-11-16T00:18:35.543Z,69.50
2022-11-16T00:19:07.208Z,69.50
2022-11-16T00:19:38.670Z,69.50
2022-11-16T00:20:10.176Z,69.50
2022-11-16T00:20:41.644Z,69.50
2022-11-16T00:21:13.113Z,69.40
2022-11-16T00:21:44.598Z,69.60
2022-11-16T00:22:16.085Z,69.50
2022-11-16T00:22:47.594Z,69.50
2022-11-16T00:23:19.099Z,69.50
2022-11-16T00:23:50.569Z,69.50
2022-11-16T00:24:22.036Z,69.50
2022-11-16T00:24:53.500Z,69.50
2022-11-16T00:25:24.972Z,69.50
2022-11-16T00:25:56.557Z,69.40
2022-11-16T00:26:28.017Z,69.80
2022-11-16T00:26:59.495Z,69.50
2022-11-16T00:27:30.961Z,69.50
2022-11-16T00:28:02.422Z,69.60
2022-11-16T00:28:34.309Z,69.50
2022-11-16T00:29:06.003Z,69.60
2022-11-16T00:29:37.486Z,69.50
2022-11-16T00:30:08.971Z,69.50
2022-11-16T00:30:40.427Z,69.70
2022-11-16T00:31:11.902Z,69.50
2022-11-16T00:31:43.363Z,69.50
2022-11-16T00:32:14.831Z,69.60
2022-11-16T00:32:46.301Z,69.70
2022-11-16T00:33:17.759Z,69.60
2022-11-16T00:33:49.244Z,69.60
2022-11-16T00:34:20.709Z,69.50
2022-11-16T00:34:52.183Z,69.60
2022-11-16T00:35:23.755Z,69.50
2022-11-16T00:35:55.211Z,69.60
2022-11-16T00:36:26.674Z,69.60
2022-11-16T00:36:58.149Z,69.50
2022-11-16T00:37:29.615Z,69.50
2022-11-16T00:38:01.096Z,69.50
2022-11-16T00:38:32.905Z,69.50
2022-11-16T00:39:04.518Z,69.50
2022-11-16T00:39:35.980Z,69.50
2022-11-16T00:40:07.449Z,69.50
2022-11-16T00:40:38.916Z,69.50
2022-11-16T00:41:10.380Z,69.50
2022-11-16T00:41:41.846Z,69.50
2022-11-16T00:42:13.323Z,69.50
2022-11-16T00:42:44.792Z,69.50
2022-11-16T00:43:16.261Z,69.60
2022-11-16T00:43:47.729Z,69.50
2022-11-16T00:44:19.202Z,69.50
2022-11-16T00:44:50.658Z,69.70
2022-11-16T00:45:22.118Z,69.60
2022-11-16T00:45:53.571Z,69.50
2022-11-16T00:46:25.041Z,69.50
2022-11-16T00:46:56.494Z,69.50
2022-11-16T00:47:27.964Z,69.50
2022-11-16T00:48:00.798Z,69.60
2022-11-16T00:48:32.726Z,69.50
2022-11-16T00:49:04.395Z,69.50
2022-11-16T00:49:35.864Z,69.50
2022-11-16T00:50:07.372Z,69.60
2022-11-16T00:50:38.830Z,69.70
2022-11-16T00:51:10.310Z,69.60
2022-11-16T00:51:41.788Z,69.50
2022-11-16T00:52:13.245Z,69.70
2022-11-16T00:52:44.717Z,69.70
2022-11-16T00:53:16.179Z,69.60
2022-11-16T00:53:47.645Z,69.70
2022-11-16T00:54:19.107Z,69.70
2022-11-16T00:54:50.568Z,69.50
2022-11-16T00:55:22.057Z,69.60
2022-11-16T00:55:53.522Z,69.70
2022-11-16T00:56:24.981Z,69.50
2022-11-16T00:56:56.453Z,69.50
2022-11-16T00:57:27.908Z,69.70
2022-11-16T00:57:59.369Z,69.60
2022-11-16T00:58:31.205Z,69.50
2022-11-16T00:59:02.868Z,69.50
2022-11-16T00:59:34.341Z,69.50
2022-11-16T01:00:05.804Z,69.50
2022-11-16T01:00:37.279Z,69.50
2022-11-16T01:01:08.782Z,69.50
2022-11-16T01:01:40.486Z,69.50
2022-11-16T01:02:12.018Z,69.60
2022-11-16T01:02:43.493Z,69.50
2022-11-16T01:03:15.001Z,69.60
2022-11-16T01:03:46.476Z,69.60
2022-11-16T01:04:17.942Z,69.60
2022-11-16T01:04:49.398Z,69.70
2022-11-16T01:05:20.865Z,69.70
2022-11-16T01:05:52.332Z,69.60
2022-11-16T01:06:23.797Z,69.70
2022-11-16T01:06:55.289Z,69.60
2022-11-16T01:07:26.851Z,69.60
2022-11-16T01:07:58.348Z,69.70
2022-11-16T01:08:29.912Z,69.70
2022-11-16T01:09:01.424Z,69.70
2022-11-16T01:09:32.895Z,69.70
2022-11-16T01:10:04.356Z,69.70
2022-11-16T01:10:35.820Z,69.70
2022-11-16T01:11:07.310Z,69.70
2022-11-16T01:11:38.780Z,69.70
2022-11-16T01:12:10.244Z,69.70
2022-11-16T01:12:41.703Z,69.70
2022-11-16T01:13:13.165Z,69.70
2022-11-16T01:13:44.620Z,69.60
2022-11-16T01:14:16.082Z,69.60
2022-11-16T01:14:47.543Z,69.50
2022-11-16T01:15:19.014Z,69.50
2022-11-16T01:15:50.479Z,69.70
2022-11-16T01:16:21.964Z,69.60
2022-11-16T01:16:53.429Z,69.60
2022-11-16T01:17:24.892Z,69.50
2022-11-16T01:17:56.368Z,69.50
2022-11-16T01:18:27.877Z,69.50
2022-11-16T01:18:59.358Z,69.60
2022-11-16T01:19:30.825Z,69.70
2022-11-16T01:20:02.300Z,69.60
2022-11-16T01:20:33.770Z,69.70
2022-11-16T01:21:05.227Z,69.70
2022-11-16T01:21:36.700Z,69.60
2022-11-16T01:22:08.166Z,69.60
2022-11-16T01:22:39.644Z,69.70
2022-11-16T01:23:11.112Z,69.70
2022-11-16T01:23:42.603Z,69.60
2022-11-16T01:24:14.173Z,69.60
2022-11-16T01:24:45.644Z,69.70
2022-11-16T01:25:17.125Z,69.70
2022-11-16T01:25:48.583Z,69.70
2022-11-16T01:26:20.052Z,69.60
2022-11-16T01:26:51.522Z,69.70
2022-11-16T01:27:23.042Z,69.60
2022-11-16T01:27:54.513Z,69.70
2022-11-16T01:28:25.981Z,69.70
2022-11-16T01:28:57.444Z,69.70
2022-11-16T01:29:28.920Z,69.60
2022-11-16T01:30:00.455Z,69.60
2022-11-16T01:30:31.990Z,69.60
2022-11-16T01:31:03.456Z,69.70
2022-11-16T01:31:34.925Z,69.70
2022-11-16T01:32:06.392Z,69.70
2022-11-16T01:32:37.857Z,69.60
2022-11-16T01:33:09.373Z,69.70
2022-11-16T01:33:40.846Z,69.70
2022-11-16T01:34:12.316Z,69.70
2022-11-16T01:34:43.796Z,69.60
2022-11-16T01:35:15.258Z,69.60
2022-11-16T01:35:46.719Z,69.60
2022-11-16T01:36:18.237Z,69.60
2022-11-16T01:36:49.773Z,69.60
2022-11-16T01:37:21.234Z,69.60
2022-11-16T01:37:52.695Z,69.60
2022-11-16T01:38:29.406Z,69.60
2022-11-16T01:39:01.355Z,69.50
2022-11-16T01:39:32.827Z,69.60
2022-11-16T01:40:04.305Z,69.60
2022-11-16T01:40:35.777Z,69.70
2022-11-16T01:41:07.240Z,69.70
2022-11-16T01:41:38.705Z,69.70
2022-11-16T01:42:10.168Z,69.60
2022-11-16T01:42:41.625Z,69.70
2022-11-16T01:43:13.098Z,69.70
2022-11-16T01:43:44.564Z,69.70
2022-11-16T01:44:16.031Z,69.70
2022-11-16T01:44:47.498Z,69.80
2022-11-16T01:45:18.980Z,69.70
2022-11-16T01:45:50.515Z,69.70
2022-11-16T01:46:21.976Z,69.80
2022-11-16T01:46:53.441Z,69.80
2022-11-16T01:47:24.913Z,69.70
2022-11-16T01:47:56.436Z,69.80
2022-11-16T01:48:28.020Z,69.80
2022-11-16T01:48:59.529Z,69.70
2022-11-16T01:49:30.995Z,69.70
2022-11-16T01:50:02.452Z,69.80
2022-11-16T01:50:33.908Z,69.70
2022-11-16T01:51:05.380Z,69.70
2022-11-16T01:51:36.852Z,69.70
2022-11-16T01:52:08.312Z,69.70
2022-11-16T01:52:39.771Z,69.70
2022-11-16T01:53:11.234Z,69.60
2022-11-16T01:53:42.702Z,69.70
2022-11-16T01:54:14.184Z,69.70
2022-11-16T01:54:45.656Z,69.70
2022-11-16T01:55:17.130Z,69.70
2022-11-16T01:55:48.593Z,69.70
2022-11-16T01:56:20.052Z,69.70
2022-11-16T01:56:51.512Z,69.70
2022-11-16T01:57:22.972Z,69.60
2022-11-16T01:57:54.472Z,69.70
2022-11-16T01:58:26.011Z,69.70
2022-11-16T01:58:57.471Z,69.60
2022-11-16T01:59:28.956Z,69.70
2022-11-16T02:00:00.421Z,69.70
2022-11-16T02:00:31.885Z,69.70
2022-11-16T02:01:03.411Z,69.60
2022-11-16T02:01:35.010Z,69.70
2022-11-16T02:02:06.505Z,69.70
2022-11-16T02:02:37.975Z,69.70
2022-11-16T02:03:09.441Z,69.70
2022-11-16T02:03:40.908Z,69.70
2022-11-16T02:06:12.121Z,69.70
2022-11-16T02:06:43.599Z,69.70
2022-11-16T02:07:15.144Z,69.70
2022-11-16T02:07:46.680Z,69.70
2022-11-16T02:08:18.148Z,69.70
2022-11-16T02:08:49.616Z,69.70
2022-11-16T02:09:21.075Z,69.70
2022-11-16T02:09:52.544Z,69.60
2022-11-16T02:10:24.018Z,69.70
2022-11-16T02:10:55.479Z,69.60
2022-11-16T02:11:26.943Z,69.60
2022-11-16T02:11:58.409Z,69.60
2022-11-16T02:12:29.870Z,69.60
2022-11-16T02:13:01.337Z,69.60
2022-11-16T02:13:32.811Z,69.60
2022-11-16T02:14:04.277Z,69.70
2022-11-16T02:14:35.757Z,69.70
2022-11-16T02:15:07.266Z,69.70
2022-11-16T02:15:38.783Z,69.80
2022-11-16T02:16:10.252Z,69.70
2022-11-16T02:16:41.731Z,69.70
2022-11-16T02:17:13.216Z,69.70
2022-11-16T02:17:44.674Z,69.70
2022-11-16T02:18:16.142Z,69.80
2022-11-16T02:18:47.604Z,69.80
2022-11-16T02:19:19.074Z,69.80
2022-11-16T02:19:50.564Z,69.80
2022-11-16T02:20:22.030Z,69.80
2022-11-16T02:20:53.487Z,69.70
2022-11-16T02:21:24.947Z,69.70
2022-11-16T02:21:56.427Z,69.70
2022-11-16T02:22:27.887Z,70.50
2022-11-16T02:22:59.375Z,69.70
2022-11-16T02:23:30.840Z,69.70
2022-11-16T02:24:02.300Z,69.70
2022-11-16T02:24:33.782Z,69.70
2022-11-16T02:25:05.266Z,69.70
2022-11-16T02:25:36.754Z,69.70
2022-11-16T02:26:08.241Z,69.70
2022-11-16T02:26:39.712Z,69.70
2022-11-16T02:27:11.178Z,69.70
2022-11-16T02:27:42.642Z,69.70
2022-11-16T02:28:14.105Z,69.70
2022-11-16T02:28:45.591Z,69.70
2022-11-16T02:29:17.077Z,69.70
2022-11-16T02:29:48.539Z,69.70
2022-11-16T02:30:20.017Z,69.70
2022-11-16T02:30:51.476Z,69.70
2022-11-16T02:31:22.942Z,69.70
2022-11-16T02:31:54.409Z,69.70
2022-11-16T02:32:25.895Z,69.70
2022-11-16T02:32:57.400Z,69.70
2022-11-16T02:33:28.855Z,69.70
2022-11-16T02:34:00.311Z,69.70
2022-11-16T02:34:31.786Z,69.70
2022-11-16T02:35:03.272Z,69.70
2022-11-16T02:35:34.808Z,69.80
2022-11-16T02:36:06.280Z,69.70
2022-11-16T02:36:37.752Z,69.70
2022-11-16T02:37:09.226Z,69.70
2022-11-16T02:37:40.694Z,69.80
2022-11-16T02:38:12.164Z,69.70
2022-11-16T02:38:43.635Z,69.70
2022-11-16T02:39:15.104Z,69.80
2022-11-16T02:39:46.563Z,69.70
2022-11-16T02:40:18.047Z,69.70
2022-11-16T02:40:49.502Z,69.70
2022-11-16T02:41:21.128Z,69.70
2022-11-16T02:41:52.607Z,69.70
2022-11-16T02:42:24.119Z,69.70
2022-11-16T02:42:55.589Z,69.70
2022-11-16T02:43:27.063Z,69.70
2022-11-16T02:43:58.530Z,70.00
2022-11-16T02:44:29.997Z,69.70
2022-11-16T02:45:01.463Z,69.70
2022-11-16T02:45:32.968Z,69.70
2022-11-16T02:46:04.480Z,69.70
2022-11-16T02:46:35.947Z,69.80
2022-11-16T02:47:07.412Z,69.70
2022-11-16T02:47:38.896Z,69.70
2022-11-16T02:48:10.412Z,69.80
2022-11-16T02:48:41.873Z,69.70
2022-11-16T02:49:13.344Z,69.70
2022-11-16T02:49:44.807Z,69.70
2022-11-16T02:50:16.402Z,69.70
2022-11-16T02:50:47.885Z,69.80
2022-11-16T02:51:19.367Z,69.80
2022-11-16T02:51:50.834Z,69.80
2022-11-16T02:52:22.309Z,69.80
2022-11-16T02:52:53.778Z,69.70
2022-11-16T02:53:25.245Z,69.70
2022-11-16T02:53:56.709Z,69.80
2022-11-16T02:54:28.167Z,69.70
2022-11-16T02:54:59.723Z,69.80
2022-11-16T02:55:31.217Z,69.80
2022-11-16T02:56:02.685Z,69.80
2022-11-16T02:56:34.140Z,69.80
2022-11-16T02:57:05.602Z,69.80
2022-11-16T02:57:37.066Z,69.80
2022-11-16T02:58:08.523Z,69.80
2022-11-16T02:58:39.985Z,69.80
2022-11-16T02:59:14.143Z,69.80
2022-11-16T02:59:48.973Z,69.80
2022-11-16T03:00:20.480Z,69.80
2022-11-16T03:00:52.037Z,69.80
2022-11-16T03:01:23.658Z,69.80
2022-11-16T03:01:55.155Z,69.90
2022-11-16T03:02:26.619Z,69.80
2022-11-16T03:02:58.095Z,69.90
2022-11-16T03:03:29.638Z,69.80
2022-11-16T03:04:01.108Z,69.80
2022-11-16T03:04:32.573Z,69.80
2022-11-16T03:05:04.032Z,69.80
2022-11-16T03:05:35.502Z,69.80
2022-11-16T03:06:07.011Z,69.70
2022-11-16T03:06:38.554Z,69.80
2022-11-16T03:07:10.077Z,69.80
2022-11-16T03:07:41.589Z,69.80
2022-11-16T03:08:13.066Z,69.80
2022-11-16T03:08:44.534Z,69.80
2022-11-16T03:09:15.998Z,69.80
2022-11-16T03:09:47.582Z,69.80
2022-11-16T03:10:19.047Z,69.80
2022-11-16T03:10:50.518Z,69.80
2022-11-16T03:11:21.979Z,69.80
2022-11-16T03:11:53.452Z,69.80
2022-11-16T03:12:24.971Z,69.80
2022-11-16T03:12:56.501Z,69.80
2022-11-16T03:13:27.967Z,69.80
2022-11-16T03:13:59.437Z,70.50
2022-11-16T03:14:30.905Z,69.80
2022-11-16T03:15:02.376Z,69.80
2022-11-16T03:15:33.851Z,69.80
2022-11-16T03:16:05.345Z,69.80
2022-11-16T03:16:36.832Z,69.80
2022-11-16T03:17:08.315Z,69.80
2022-11-16T03:17:39.775Z,69.80
2022-11-16T03:18:11.240Z,69.80
2022-11-16T03:18:42.703Z,69.80
2022-11-16T03:19:14.168Z,69.70
2022-11-16T03:19:45.634Z,69.70
2022-11-16T03:20:17.105Z,69.80
2022-11-16T03:20:48.563Z,69.70
2022-11-16T03:21:20.024Z,69.70
2022-11-16T03:21:51.481Z,69.70
2022-11-16T03:22:23.027Z,69.70
2022-11-16T03:22:54.484Z,69.70
2022-11-16T03:23:25.946Z,69.70
2022-11-16T03:23:57.415Z,69.70
2022-11-16T03:24:28.887Z,69.70
2022-11-16T03:25:00.359Z,69.80
2022-11-16T03:25:31.850Z,69.70
2022-11-16T03:26:03.311Z,69.70
2022-11-16T03:26:34.777Z,70.50
2022-11-16T03:27:06.267Z,69.80
2022-11-16T03:27:37.742Z,69.80
2022-11-16T03:28:09.240Z,69.80
2022-11-16T03:28:40.748Z,69.80
2022-11-16T03:29:12.210Z,69.80
2022-11-16T03:29:43.673Z,69.80
2022-11-16T03:30:15.134Z,69.80
2022-11-16T03:30:46.599Z,69.80
2022-11-16T03:31:18.063Z,69.80
2022-11-16T03:31:49.592Z,70.00
2022-11-16T03:32:21.069Z,69.90
2022-11-16T03:32:52.535Z,69.90
2022-11-16T03:33:23.995Z,69.80
2022-11-16T03:33:55.464Z,69.80
2022-11-16T03:34:26.923Z,69.90
2022-11-16T03:34:58.387Z,69.80
2022-11-16T03:35:29.853Z,69.80
2022-11-16T03:36:01.311Z,69.80
2022-11-16T03:36:32.781Z,69.80
2022-11-16T03:37:04.253Z,69.80
2022-11-16T03:37:35.773Z,69.80
2022-11-16T03:38:07.317Z,69.80
2022-11-16T03:38:38.776Z,69.80
2022-11-16T03:39:10.248Z,69.80
2022-11-16T03:39:41.709Z,69.80
2022-11-16T03:40:13.173Z,69.80
2022-11-16T03:40:44.637Z,69.80
2022-11-16T03:41:16.095Z,69.80
2022-11-16T03:41:47.562Z,69.80
2022-11-16T03:42:19.057Z,69.80
2022-11-16T03:42:50.520Z,69.80
2022-11-16T03:43:21.979Z,69.80
2022-11-16T03:43:53.444Z,69.80
2022-11-16T03:44:24.911Z,69.80
2022-11-16T03:44:56.377Z,69.80
2022-11-16T03:45:27.847Z,69.80
2022-11-16T03:45:59.310Z,69.80
2022-11-16T03:46:30.780Z,69.80
2022-11-16T03:47:02.245Z,69.90
2022-11-16T03:47:33.721Z,69.80
2022-11-16T03:48:05.197Z,69.80
2022-11-16T03:48:36.922Z,69.80
2022-11-16T03:49:08.502Z,69.80
2022-11-16T03:49:39.987Z,69.80
2022-11-16T03:50:11.489Z,69.80
2022-11-16T03:50:42.972Z,69.80
2022-11-16T03:51:14.431Z,69.80
2022-11-16T03:51:45.964Z,69.80
2022-11-16T03:52:17.427Z,69.80
2022-11-16T03:52:48.985Z,69.80
2022-11-16T03:53:20.445Z,69.80
2022-11-16T03:53:51.911Z,69.80
2022-11-16T03:54:23.374Z,70.70
2022-11-16T03:54:54.837Z,69.80
2022-11-16T03:55:26.301Z,69.80
2022-11-16T03:55:57.781Z,69.80
2022-11-16T03:56:29.248Z,69.80
2022-11-16T03:57:00.699Z,69.80
2022-11-16T03:57:32.164Z,69.80
2022-11-16T03:58:03.655Z,69.80
2022-11-16T03:58:35.319Z,69.80
2022-11-16T03:59:07.037Z,69.80
2022-11-16T03:59:38.501Z,69.80
2022-11-16T04:00:09.967Z,69.80
2022-11-16T04:00:41.450Z,69.80
2022-11-16T04:01:12.982Z,69.80
2022-11-16T04:01:45.033Z,69.80
2022-11-16T04:02:16.622Z,69.80
2022-11-16T04:02:48.097Z,69.80
2022-11-16T04:03:19.562Z,69.90
2022-11-16T04:03:51.145Z,69.80
2022-11-16T04:04:22.826Z,70.10
2022-11-16T04:04:54.288Z,69.80
2022-11-16T04:05:25.753Z,69.80
2022-11-16T04:05:57.228Z,69.80
2022-11-16T04:06:28.695Z,69.90
2022-11-16T04:07:00.270Z,69.80
2022-11-16T04:07:31.894Z,69.80
2022-11-16T04:08:03.409Z,69.80
2022-11-16T04:08:35.180Z,69.90
2022-11-16T04:09:06.840Z,69.90
2022-11-16T04:09:38.304Z,69.80
2022-11-16T04:10:09.815Z,70.00
2022-11-16T04:10:41.296Z,69.90
2022-11-16T04:11:12.756Z,70.00
2022-11-16T04:11:44.230Z,69.80
2022-11-16T04:12:15.704Z,69.80
2022-11-16T04:12:47.170Z,70.00
2022-11-16T04:13:18.653Z,70.00
2022-11-16T04:13:50.116Z,70.00
2022-11-16T04:14:21.591Z,70.00
2022-11-16T04:14:53.051Z,70.00
2022-11-16T04:15:24.507Z,70.00
2022-11-16T04:15:55.977Z,70.00
2022-11-16T04:16:27.490Z,69.90
2022-11-16T04:16:58.988Z,69.90
2022-11-16T04:17:30.460Z,69.90
2022-11-16T04:18:01.943Z,70.00
2022-11-16T04:18:33.523Z,69.90
2022-11-16T04:19:05.136Z,69.80
2022-11-16T04:19:36.605Z,69.80
2022-11-16T04:20:08.069Z,69.90
2022-11-16T04:20:39.535Z,70.70
2022-11-16T04:21:11.000Z,69.90
2022-11-16T04:21:42.464Z,69.80
2022-11-16T04:22:13.935Z,70.00
2022-11-16T04:22:45.401Z,69.80
2022-11-16T04:23:16.869Z,69.80
2022-11-16T04:23:48.345Z,69.90
2022-11-16T04:24:19.820Z,69.90
2022-11-16T04:24:51.280Z,69.90
2022-11-16T04:25:22.848Z,69.80
2022-11-16T04:25:54.331Z,70.00
2022-11-16T04:26:25.797Z,69.90
2022-11-16T04:26:57.255Z,69.90
2022-11-16T04:27:28.724Z,69.90
2022-11-16T04:28:00.210Z,69.90
2022-11-16T04:28:32.058Z,69.90
2022-11-16T04:29:03.849Z,70.00
2022-11-16T04:29:35.316Z,69.90
2022-11-16T04:30:06.775Z,69.80
2022-11-16T04:30:38.236Z,69.90
2022-11-16T04:31:09.704Z,70.00
2022-11-16T04:31:41.180Z,69.90
2022-11-16T04:32:12.644Z,69.90
2022-11-16T04:32:44.110Z,70.00
2022-11-16T04:33:15.572Z,69.90
2022-11-16T04:33:47.043Z,69.90
2022-11-16T04:34:18.504Z,69.80
2022-11-16T04:34:49.962Z,69.80
2022-11-16T04:35:21.455Z,69.80
2022-11-16T04:35:52.928Z,69.80
2022-11-16T04:36:24.413Z,69.90
2022-11-16T04:36:55.873Z,69.80
2022-11-16T04:37:27.353Z,69.80
2022-11-16T04:37:58.816Z,69.80
2022-11-16T04:38:30.486Z,69.80
2022-11-16T04:39:02.097Z,69.80
2022-11-16T04:39:33.559Z,69.80
2022-11-16T04:40:05.021Z,69.80
2022-11-16T04:40:36.492Z,70.00
2022-11-16T04:41:07.958Z,69.90
2022-11-16T04:41:39.420Z,70.00
2022-11-16T04:42:10.899Z,70.00
2022-11-16T04:42:42.374Z,70.00
2022-11-16T04:43:13.843Z,70.00
2022-11-16T04:43:45.311Z,69.90
2022-11-16T04:44:16.784Z,69.90
2022-11-16T04:44:48.262Z,69.90
2022-11-16T04:45:19.725Z,69.90
2022-11-16T04:45:51.192Z,69.90
2022-11-16T04:46:22.664Z,69.80
2022-11-16T04:46:54.128Z,69.90
2022-11-16T04:47:25.597Z,69.90
2022-11-16T04:47:57.067Z,69.80
2022-11-16T04:48:28.539Z,69.80
2022-11-16T04:48:59.995Z,69.90
2022-11-16T04:49:31.462Z,69.80
2022-11-16T04:50:02.928Z,69.80
2022-11-16T04:50:34.398Z,69.90
2022-11-16T04:51:05.897Z,69.80
2022-11-16T04:51:37.364Z,69.80
2022-11-16T04:52:08.839Z,70.00
2022-11-16T04:52:40.327Z,69.90
2022-11-16T04:53:11.799Z,69.90
2022-11-16T04:53:43.260Z,69.90
2022-11-16T04:54:14.766Z,69.90
2022-11-16T04:54:46.231Z,69.90
2022-11-16T04:55:17.725Z,69.90
2022-11-16T04:55:49.192Z,69.90
2022-11-16T04:56:20.732Z,69.80
2022-11-16T04:56:52.200Z,69.90
2022-11-16T04:57:23.677Z,69.90
2022-11-16T04:57:55.139Z,70.00
2022-11-16T04:58:26.600Z,69.90
2022-11-16T04:58:58.051Z,69.90
2022-11-16T04:59:29.529Z,69.90
2022-11-16T05:00:01.013Z,70.00
2022-11-16T05:00:32.471Z,69.90
2022-11-16T05:01:04.013Z,69.90
2022-11-16T05:01:35.587Z,70.00
2022-11-16T05:02:07.070Z,69.90
2022-11-16T05:02:38.553Z,69.90
2022-11-16T05:03:10.017Z,69.90
2022-11-16T05:03:41.491Z,69.90
2022-11-16T05:04:12.953Z,69.90
2022-11-16T05:04:44.414Z,69.90
2022-11-16T05:05:15.884Z,70.00
2022-11-16T05:05:47.364Z,69.90
2022-11-16T05:06:18.840Z,69.90
2022-11-16T05:06:50.413Z,69.90
2022-11-16T05:07:21.995Z,69.90
2022-11-16T05:07:53.505Z,69.90
2022-11-16T05:08:24.981Z,69.90
2022-11-16T05:08:56.435Z,70.00
2022-11-16T05:09:27.899Z,70.00
2022-11-16T05:09:59.365Z,70.00
2022-11-16T05:10:30.823Z,69.90
2022-11-16T05:11:02.285Z,70.00
2022-11-16T05:11:33.752Z,69.90
2022-11-16T05:12:05.245Z,69.90
2022-11-16T05:12:36.714Z,70.00
2022-11-16T05:13:08.180Z,69.90
2022-11-16T05:13:39.768Z,69.90
2022-11-16T05:14:11.239Z,69.90
2022-11-16T05:14:42.696Z,69.80
2022-11-16T05:15:14.162Z,69.90
2022-11-16T05:15:45.620Z,70.00
2022-11-16T05:16:17.313Z,69.80
2022-11-16T05:16:48.811Z,69.90
2022-11-16T05:17:20.276Z,69.90
2022-11-16T05:17:51.744Z,69.90
2022-11-16T05:18:23.229Z,69.90
2022-11-16T05:18:54.704Z,69.90
2022-11-16T05:19:26.163Z,69.90
2022-11-16T05:19:57.626Z,70.00
2022-11-16T05:20:29.101Z,70.00
2022-11-16T05:21:00.589Z,70.00
2022-11-16T05:21:32.053Z,70.00
2022-11-16T05:22:03.519Z,70.00
2022-11-16T05:22:34.995Z,70.00
2022-11-16T05:23:06.452Z,70.00
2022-11-16T05:23:37.918Z,70.00
2022-11-16T05:24:09.385Z,70.00
2022-11-16T05:24:40.856Z,70.00
2022-11-16T05:25:12.325Z,70.10
2022-11-16T05:25:43.806Z,70.00
2022-11-16T05:26:15.298Z,70.00
2022-11-16T05:26:46.775Z,70.10
2022-11-16T05:27:18.240Z,70.00
2022-11-16T05:27:49.709Z,70.10
2022-11-16T05:28:21.170Z,70.00
2022-11-16T05:28:52.638Z,70.00
2022-11-16T05:29:24.143Z,69.90
2022-11-16T05:29:55.649Z,69.90
2022-11-16T05:30:27.178Z,69.90
2022-11-16T05:30:58.658Z,70.00
2022-11-16T05:31:30.133Z,69.90
2022-11-16T05:32:01.593Z,69.90
2022-11-16T05:32:33.084Z,69.90
2022-11-16T05:33:04.564Z,69.90
2022-11-16T05:33:36.026Z,69.90
2022-11-16T05:34:07.517Z,69.90
2022-11-16T05:34:38.977Z,69.90
2022-11-16T05:35:10.438Z,70.80
2022-11-16T05:35:41.934Z,69.90
2022-11-16T05:36:13.462Z,70.00
2022-11-16T05:36:44.924Z,70.00
2022-11-16T05:37:16.413Z,70.00
2022-11-16T05:37:47.898Z,70.00
2022-11-16T05:38:19.361Z,70.00
2022-11-16T05:38:55.178Z,70.00
2022-11-16T05:39:27.642Z,70.00
2022-11-16T05:39:59.115Z,70.00
2022-11-16T05:40:30.574Z,70.00
2022-11-16T05:41:02.057Z,70.00
2022-11-16T05:41:33.548Z,70.00
2022-11-16T05:42:05.041Z,70.00
2022-11-16T05:42:36.534Z,70.00
2022-11-16T05:43:08.004Z,70.00
2022-11-16T05:43:39.474Z,70.00
2022-11-16T05:44:10.936Z,70.00
2022-11-16T05:44:42.401Z,70.00
2022-11-16T05:45:18.416Z,70.00
2022-11-16T05:45:52.283Z,70.00
2022-11-16T05:46:23.744Z,70.00
2022-11-16T05:46:55.217Z,70.00
2022-11-16T05:47:26.679Z,70.00
2022-11-16T05:47:58.135Z,70.10
2022-11-16T05:48:29.591Z,70.00
2022-11-16T05:49:01.064Z,70.00
2022-11-16T05:49:32.528Z,70.00
2022-11-16T05:50:03.993Z,70.00
2022-11-16T05:50:39.887Z,70.00
2022-11-16T05:51:13.938Z,70.00
2022-11-16T05:51:45.431Z,70.00
2022-11-16T05:52:16.942Z,69.90
2022-11-16T05:52:48.408Z,69.90
2022-11-16T05:53:19.874Z,70.00
2022-11-16T05:53:51.339Z,70.00
2022-11-16T05:54:22.805Z,70.00
2022-11-16T05:54:54.268Z,70.00
2022-11-16T05:55:25.733Z,70.00
2022-11-16T05:55:57.265Z,70.00
2022-11-16T05:56:28.820Z,70.00
2022-11-16T05:57:00.343Z,70.00
2022-11-16T05:57:31.849Z,70.80
2022-11-16T05:58:03.358Z,70.00
2022-11-16T05:58:35.306Z,70.00
2022-11-16T05:59:08.459Z,70.70
2022-11-16T05:59:41.593Z,70.00
2022-11-16T06:00:13.061Z,70.00
2022-11-16T06:00:44.523Z,70.00
2022-11-16T06:01:15.983Z,70.00
2022-11-16T06:01:47.459Z,70.00
2022-11-16T06:02:18.940Z,70.00
2022-11-16T06:02:50.680Z,70.00
2022-11-16T06:03:22.369Z,70.00
2022-11-16T06:03:53.947Z,70.00
2022-11-16T06:04:25.430Z,70.00
2022-11-16T06:04:56.896Z,70.00
2022-11-16T06:05:28.395Z,70.00
2022-11-16T06:05:59.865Z,70.00
2022-11-16T06:06:31.324Z,70.00
2022-11-16T06:07:02.873Z,70.00
2022-11-16T06:07:34.445Z,70.00
2022-11-16T06:08:05.976Z,70.00
2022-11-16T06:08:37.722Z,70.00
2022-11-16T06:09:09.342Z,70.00
2022-11-16T06:09:40.891Z,70.00
2022-11-16T06:10:12.402Z,70.00
2022-11-16T06:10:43.890Z,70.00
2022-11-16T06:11:15.356Z,70.00
2022-11-16T06:11:46.826Z,70.10
2022-11-16T06:12:18.284Z,70.00
2022-11-16T06:12:49.751Z,70.00
2022-11-16T06:13:21.229Z,70.00
2022-11-16T06:13:52.701Z,70.10
2022-11-16T06:14:24.167Z,70.00
2022-11-16T06:14:55.660Z,70.00
2022-11-16T06:15:27.120Z,70.10
2022-11-16T06:15:58.616Z,70.00
2022-11-16T06:16:30.095Z,70.00
2022-11-16T06:17:01.560Z,70.00
2022-11-16T06:17:33.072Z,70.00
2022-11-16T06:18:04.538Z,70.00
2022-11-16T06:18:36.305Z,70.00
2022-11-16T06:19:07.952Z,70.10
2022-11-16T06:19:39.431Z,70.10
2022-11-16T06:20:10.960Z,70.00
2022-11-16T06:20:42.435Z,70.00
2022-11-16T06:21:13.901Z,70.00
2022-11-16T06:21:45.368Z,70.10
2022-11-16T06:22:16.831Z,70.00
2022-11-16T06:22:48.347Z,70.00
2022-11-16T06:23:19.869Z,70.70
2022-11-16T06:23:51.332Z,70.00
2022-11-16T06:24:22.805Z,70.00
2022-11-16T06:24:54.268Z,70.00
2022-11-16T06:25:25.731Z,70.10
2022-11-16T06:25:57.233Z,70.00
2022-11-16T06:26:28.760Z,70.00
2022-11-16T06:27:00.236Z,70.00
2022-11-16T06:27:31.716Z,70.10
2022-11-16T06:28:07.658Z,70.00
2022-11-16T06:28:39.509Z,70.00
2022-11-16T06:29:10.977Z,70.00
2022-11-16T06:29:42.441Z,70.00
2022-11-16T06:30:13.900Z,70.00
2022-11-16T06:30:45.366Z,70.00
2022-11-16T06:31:16.854Z,70.00
2022-11-16T06:31:48.324Z,70.00
2022-11-16T06:32:19.797Z,70.00
2022-11-16T06:32:51.309Z,70.00
2022-11-16T06:33:22.764Z,70.00
2022-11-16T06:33:54.228Z,70.00
2022-11-16T06:34:25.751Z,70.00
2022-11-16T06:34:57.236Z,70.00
2022-11-16T06:35:28.937Z,70.00
2022-11-16T06:36:00.443Z,70.00
2022-11-16T06:36:31.929Z,70.00
2022-11-16T06:37:03.396Z,70.00
2022-11-16T06:38:09.177Z,70.00
2022-11-16T06:38:40.640Z,70.00
2022-11-16T06:39:12.095Z,70.00
2022-11-16T06:39:43.575Z,70.00
2022-11-16T06:40:15.061Z,70.00
2022-11-16T06:40:46.550Z,70.00
2022-11-16T06:41:18.033Z,70.00
2022-11-16T06:41:49.504Z,70.00
2022-11-16T06:42:20.997Z,70.00
2022-11-16T06:42:52.505Z,70.00
2022-11-16T06:43:23.971Z,70.00
2022-11-16T06:43:58.446Z,70.00
2022-11-16T06:44:29.912Z,70.00
2022-11-16T06:45:01.391Z,70.00
2022-11-16T06:45:32.872Z,70.00
2022-11-16T06:46:04.343Z,70.00
2022-11-16T06:46:35.827Z,70.00
2022-11-16T06:47:07.338Z,70.00
2022-11-16T06:47:38.817Z,70.00
2022-11-16T06:48:10.395Z,69.90
2022-11-16T06:48:41.964Z,70.00